Terminal Aerodrome Forecast
Issued by NWS

Home | Current Version | Previous Version | Text Only | Print | Product List | Glossary On
Versions: 1 2 3 4 5 6 7 8 9 10 11 12 13 14 15 16 17 18 19 20 21 22 23 24 25 26 27 28 29 30 31 32
000
FTUS44 KOUN 251737
TAFCSM
TAF
KCSM 251737Z 2518/2618 20015G25KT P6SM SCT035
      TEMPO 2523/2602 4SM -TSRA BR BKN020CB
     FM260200 19010KT P6SM SCT250
     FM261300 20015G20KT P6SM BKN250=

USA.gov is the U.S. government's official web portal to all federal, state and local government web resources and services.